Time;durP1;ratioP1;P1;durP2;ratioP2;P2;SDS_P1;SDS_P2;PMS_P1;PMS_P2;Temp;Humidity;BMP_temperature;BMP_pressure;BME280_temperature;BME280_humidity;BME280_pressure;Samples;Min_cycle;Max_cycle;Signal;HPM_P1;HPM_P2
2021/07/16 00:00:08;;;;;;;24.00;7.60;;;;;;;13.41;100.00;95786.91;1044784;28;20102;-50
2021/07/16 00:00:39;;;;;;;17.33;6.53;;;;;;;13.43;100.00;95784.97;1044877;28;20100;-50
2021/07/16 00:01:09;;;;;;;26.88;7.32;;;;;;;13.43;100.00;95787.59;1044942;28;20051;-51
2021/07/16 00:01:40;;;;;;;17.70;6.70;;;;;;;13.40;100.00;95780.81;1044838;28;20062;-50
2021/07/16 00:02:11;;;;;;;19.98;6.10;;;;;;;13.43;100.00;95784.13;1044596;28;20025;-53
2021/07/16 00:02:43;;;;;;;10.13;4.75;;;;;;;13.39;100.00;95783.56;1044796;28;20009;-51
2021/07/16 00:03:13;;;;;;;13.02;4.80;;;;;;;13.38;100.00;95780.09;1044812;28;20092;-51
2021/07/16 00:03:44;;;;;;;15.27;5.38;;;;;;;13.38;100.00;95782.75;1044078;28;20374;-52
2021/07/16 00:04:15;;;;;;;17.65;5.90;;;;;;;13.38;100.00;95780.09;1044840;28;20059;-51
2021/07/16 00:04:46;;;;;;;21.13;5.93;;;;;;;13.37;100.00;95783.69;1044892;28;20025;-52
2021/07/16 00:05:16;;;;;;;12.18;5.65;;;;;;;13.39;100.00;95780.94;1044902;28;20474;-48
2021/07/16 00:05:47;;;;;;;10.68;5.07;;;;;;;13.41;100.00;95779.81;1044699;28;20087;-51
2021/07/16 00:06:18;;;;;;;17.48;5.88;;;;;;;13.39;100.00;95781.75;1044820;28;20323;-51
2021/07/16 00:06:49;;;;;;;12.00;5.40;;;;;;;13.36;100.00;95784.66;1044930;28;20019;-50
2021/07/16 00:07:20;;;;;;;16.30;5.32;;;;;;;13.35;100.00;95785.63;1044751;28;20005;-51
2021/07/16 00:07:51;;;;;;;11.55;6.03;;;;;;;13.30;100.00;95785.16;1044766;28;20005;-50
2021/07/16 00:08:21;;;;;;;12.80;6.57;;;;;;;13.33;100.00;95782.28;1044508;28;20394;-53
2021/07/16 00:08:52;;;;;;;9.02;5.03;;;;;;;13.36;100.00;95782.03;1044581;28;20087;-51
2021/07/16 00:09:23;;;;;;;20.05;6.45;;;;;;;13.34;100.00;95791.00;1044481;28;20036;-51
2021/07/16 00:09:53;;;;;;;12.52;6.10;;;;;;;13.33;100.00;95777.03;1044426;28;20016;-51
2021/07/16 00:10:24;;;;;;;16.92;6.15;;;;;;;13.34;100.00;95788.38;1044766;28;20012;-51
2021/07/16 00:10:55;;;;;;;11.85;6.05;;;;;;;13.33;100.00;95792.81;1044882;28;20009;-51
2021/07/16 00:11:27;;;;;;;14.65;6.15;;;;;;;13.35;100.00;95780.34;1044832;28;20448;-53
2021/07/16 00:11:58;;;;;;;16.52;5.68;;;;;;;13.36;100.00;95784.66;1044555;28;20021;-53
2021/07/16 00:12:28;;;;;;;12.75;5.50;;;;;;;13.38;100.00;95788.00;1044759;28;20016;-51
2021/07/16 00:12:59;;;;;;;21.13;7.07;;;;;;;13.35;100.00;95792.69;1044889;28;20062;-51
2021/07/16 00:13:29;;;;;;;17.70;6.80;;;;;;;13.32;100.00;95792.94;1044506;28;20108;-49
2021/07/16 00:14:00;;;;;;;15.32;6.75;;;;;;;13.35;100.00;95784.78;1044438;28;20532;-51
2021/07/16 00:14:32;;;;;;;26.10;5.65;;;;;;;13.39;100.00;95788.81;1044860;28;20009;-50
2021/07/16 00:15:04;;;;;;;15.15;5.82;;;;;;;13.36;100.00;95783.81;1044866;28;20017;-51
2021/07/16 00:15:35;;;;;;;10.18;5.43;;;;;;;13.34;100.00;95793.63;1044767;28;20013;-51
2021/07/16 00:16:06;;;;;;;15.68;5.43;;;;;;;13.41;100.00;95789.53;1044622;28;20092;-52
2021/07/16 00:16:38;;;;;;;12.57;5.43;;;;;;;13.48;100.00;95789.88;1044805;28;20438;-51
2021/07/16 00:17:09;;;;;;;13.50;5.75;;;;;;;13.47;100.00;95789.00;1044839;28;20014;-51
2021/07/16 00:17:40;;;;;;;10.90;5.80;;;;;;;13.51;100.00;95794.84;1044867;28;20016;-49
2021/07/16 00:18:11;;;;;;;12.52;5.32;;;;;;;13.47;100.00;95789.00;1044598;28;20021;-51
2021/07/16 00:18:42;;;;;;;12.38;5.90;;;;;;;13.44;100.00;95789.28;1044975;28;20017;-50
2021/07/16 00:19:13;;;;;;;14.18;4.90;;;;;;;13.44;100.00;95793.69;1044755;28;20025;-51
2021/07/16 00:19:44;;;;;;;13.88;5.68;;;;;;;13.43;100.00;95784.97;1044796;28;20009;-53
2021/07/16 00:20:15;;;;;;;13.40;5.70;;;;;;;13.43;100.00;95789.41;1044661;28;20438;-50
2021/07/16 00:20:47;;;;;;;11.40;5.22;;;;;;;13.41;100.00;95793.00;1044826;28;20028;-50
2021/07/16 00:21:18;;;;;;;15.52;6.30;;;;;;;13.38;100.00;95788.00;1044775;28;20013;-53
2021/07/16 00:21:49;;;;;;;10.70;5.00;;;;;;;13.40;100.00;95791.34;1044872;28;20013;-50
2021/07/16 00:22:22;;;;;;;11.00;5.60;;;;;;;13.45;100.00;95790.09;1044504;28;20020;-50
2021/07/16 00:22:53;;;;;;;19.52;6.07;;;;;;;13.47;100.00;95790.81;1044769;28;20032;-51
2021/07/16 00:23:24;;;;;;;10.35;5.13;;;;;;;13.45;100.00;95787.47;1044618;28;20108;-50
2021/07/16 00:23:55;;;;;;;8.43;5.00;;;;;;;13.44;100.00;95789.28;1044283;28;20383;-51
2021/07/16 00:24:26;;;;;;;17.60;5.22;;;;;;;13.45;100.00;95790.94;1044604;28;20100;-48
2021/07/16 00:24:56;;;;;;;11.77;5.22;;;;;;;13.49;100.00;95789.72;1044898;28;20016;-51
2021/07/16 00:25:27;;;;;;;11.07;4.85;;;;;;;13.51;100.00;95789.59;1044772;28;20482;-51
2021/07/16 00:25:58;;;;;;;11.63;5.85;;;;;;;13.50;100.00;95788.75;1044740;28;20355;-50
2021/07/16 00:26:29;;;;;;;16.02;6.75;;;;;;;13.52;100.00;95789.47;1044592;28;20099;-51
2021/07/16 00:27:01;;;;;;;12.60;6.15;;;;;;;13.50;100.00;95796.66;1044903;28;20394;-50
2021/07/16 00:27:32;;;;;;;12.20;6.03;;;;;;;13.51;100.00;95790.41;1044809;28;20023;-50
2021/07/16 00:28:04;;;;;;;9.43;5.10;;;;;;;13.57;100.00;95795.19;1044666;28;20047;-51
2021/07/16 00:28:35;;;;;;;12.10;4.78;;;;;;;13.60;100.00;95796.69;1044637;28;20028;-51
2021/07/16 00:29:05;;;;;;;12.95;5.35;;;;;;;13.53;100.00;95788.50;1044697;28;20386;-49
2021/07/16 00:29:36;;;;;;;14.50;5.75;;;;;;;13.50;100.00;95798.47;1044753;28;20025;-50
2021/07/16 00:30:10;;;;;;;11.07;4.80;;;;;;;13.55;100.00;95791.84;1044703;28;20082;-51
2021/07/16 00:30:41;;;;;;;10.68;5.20;;;;;;;13.55;100.00;95793.63;1044597;28;20029;-51
2021/07/16 00:31:12;;;;;;;12.77;5.45;;;;;;;13.60;100.00;95794.91;1044801;28;20017;-51
2021/07/16 00:31:43;;;;;;;12.27;5.18;;;;;;;13.65;100.00;95791.06;1044776;28;20504;-53
2021/07/16 00:32:13;;;;;;;13.05;5.20;;;;;;;13.65;100.00;95794.53;1044672;28;20050;-52
2021/07/16 00:32:44;;;;;;;12.15;4.97;;;;;;;13.60;100.00;95794.06;1044638;28;20028;-51
2021/07/16 00:33:15;;;;;;;15.68;5.57;;;;;;;13.59;100.00;95790.59;1044733;28;20431;-51
2021/07/16 00:33:46;;;;;;;10.88;5.22;;;;;;;13.58;100.00;95790.72;1044124;28;20028;-50
2021/07/16 00:34:16;;;;;;;12.38;4.68;;;;;;;13.61;100.00;95796.56;1044696;28;20052;-51
2021/07/16 00:34:47;;;;;;;12.15;5.20;;;;;;;13.57;100.00;95794.31;1044099;28;20490;-50
2021/07/16 00:35:18;;;;;;;11.95;5.10;;;;;;;13.60;100.00;95799.34;1044812;28;20089;-50
2021/07/16 00:35:49;;;;;;;10.55;5.32;;;;;;;13.65;100.00;95793.69;1044631;28;20100;-50
2021/07/16 00:36:19;;;;;;;12.57;5.30;;;;;;;13.65;100.00;95794.53;1044636;28;20027;-51
2021/07/16 00:36:50;;;;;;;15.07;5.45;;;;;;;13.71;100.00;95791.34;1044640;28;20028;-50
2021/07/16 00:37:21;;;;;;;9.63;5.03;;;;;;;13.72;100.00;95797.44;1044802;28;20037;-52
2021/07/16 00:37:52;;;;;;;8.55;4.88;;;;;;;13.68;100.00;95790.78;1044780;28;20029;-48
2021/07/16 00:38:22;;;;;;;17.33;5.30;;;;;;;13.66;100.00;95798.81;1044690;28;20033;-50
2021/07/16 00:38:53;;;;;;;12.25;4.88;;;;;;;13.68;100.00;95796.03;1044638;28;20021;-51
2021/07/16 00:39:24;;;;;;;10.15;4.55;;;;;;;13.65;100.00;95791.88;1044630;28;20086;-50
2021/07/16 00:39:54;;;;;;;9.27;4.10;;;;;;;13.63;100.00;95799.09;1044674;28;20028;-50
2021/07/16 00:40:25;;;;;;;7.13;4.47;;;;;;;13.68;100.00;95796.88;1044667;28;20021;-51
2021/07/16 00:40:56;;;;;;;12.40;4.78;;;;;;;13.66;100.00;95798.81;1044592;28;20430;-50
2021/07/16 00:41:27;;;;;;;8.98;4.78;;;;;;;13.57;100.00;95797.81;1044736;28;20425;-53
2021/07/16 00:41:57;;;;;;;11.27;4.68;;;;;;;13.60;100.00;95794.91;1044713;28;20071;-51
2021/07/16 00:42:28;;;;;;;8.02;4.95;;;;;;;13.61;100.00;95796.56;1044566;28;20528;-50
2021/07/16 00:42:59;;;;;;;11.02;4.85;;;;;;;13.65;100.00;95793.69;1044561;28;20033;-51
2021/07/16 00:43:30;;;;;;;9.30;4.53;;;;;;;13.59;100.00;95793.25;1044383;28;20024;-48
2021/07/16 00:44:01;;;;;;;9.52;4.63;;;;;;;13.56;100.00;95796.13;1044495;28;20013;-50
2021/07/16 00:44:34;;;;;;;10.93;5.30;;;;;;;13.55;100.00;95799.75;1044656;28;20490;-51
2021/07/16 00:45:08;;;;;;;9.32;5.30;;;;;;;13.54;100.00;95798.06;1044535;28;20023;-51
2021/07/16 00:45:39;;;;;;;13.02;5.60;;;;;;;13.54;100.00;95797.22;1044629;28;20013;-50
2021/07/16 00:46:09;;;;;;;13.88;5.00;;;;;;;13.52;100.00;95796.53;1044654;28;20418;-52
2021/07/16 00:46:40;;;;;;;9.35;4.85;;;;;;;13.52;100.00;95800.00;1044712;28;20097;-50
2021/07/16 00:47:11;;;;;;;10.48;5.13;;;;;;;13.47;100.00;95796.91;1044569;28;20009;-50
2021/07/16 00:47:43;;;;;;;9.98;4.25;;;;;;;13.45;100.00;95798.81;1044594;28;20013;-53
2021/07/16 00:48:13;;;;;;;7.78;4.45;;;;;;;13.39;100.00;95800.19;1044667;28;20032;-51
2021/07/16 00:48:44;;;;;;;16.45;4.97;;;;;;;13.36;100.00;95794.34;1044592;28;20382;-51
2021/07/16 00:49:15;;;;;;;11.52;6.55;;;;;;;13.38;100.00;95790.63;1044546;28;20084;-50
2021/07/16 00:49:45;;;;;;;10.88;5.40;;;;;;;13.36;100.00;95799.59;1044689;28;20017;-52
2021/07/16 00:50:20;;;;;;;13.20;6.50;;;;;;;13.37;100.00;95803.91;1044383;28;20055;-49
2021/07/16 00:50:52;;;;;;;13.18;6.85;;;;;;;13.34;100.00;95798.91;1044391;28;20009;-50
2021/07/16 00:51:23;;;;;;;19.17;6.25;;;;;;;13.33;100.00;95792.81;1044331;28;20565;-50
2021/07/16 00:51:54;;;;;;;17.98;5.65;;;;;;;13.27;100.00;95793.31;1044432;28;20096;-53
2021/07/16 00:52:25;;;;;;;13.65;5.10;;;;;;;13.22;100.00;95790.22;1044657;28;20483;-50
2021/07/16 00:52:55;;;;;;;13.20;5.72;;;;;;;13.20;100.00;95797.41;1044729;28;20084;-53
2021/07/16 00:53:26;;;;;;;10.48;5.57;;;;;;;13.18;100.00;95796.69;1044390;28;20044;-50
2021/07/16 00:53:57;;;;;;;12.30;5.75;;;;;;;13.13;100.00;95790.97;1044235;28;20024;-51
2021/07/16 00:54:28;;;;;;;11.38;5.55;;;;;;;13.13;100.00;95796.25;1044625;28;20020;-53
2021/07/16 00:54:59;;;;;;;13.60;5.40;;;;;;;13.10;100.00;95792.06;1044658;28;20017;-50
2021/07/16 00:55:31;;;;;;;13.00;6.47;;;;;;;13.10;100.00;95794.72;1044534;28;20064;-53
2021/07/16 00:56:02;;;;;;;9.85;5.50;;;;;;;13.10;100.00;95785.97;1044657;28;20017;-50
2021/07/16 00:56:33;;;;;;;12.10;5.80;;;;;;;13.09;100.00;95794.81;1044646;28;20021;-51
2021/07/16 00:57:07;;;;;;;13.82;5.95;;;;;;;13.05;100.00;95794.25;1044648;28;20021;-51
2021/07/16 00:57:38;;;;;;;13.63;5.20;;;;;;;13.02;100.00;95795.31;1044576;28;20028;-50
2021/07/16 00:58:09;;;;;;;11.65;5.20;;;;;;;13.01;100.00;95793.66;1044705;28;20397;-51
2021/07/16 00:58:40;;;;;;;15.50;5.50;;;;;;;13.00;100.00;95794.59;1044589;28;20021;-53
2021/07/16 00:59:14;;;;;;;14.20;4.97;;;;;;;12.98;100.00;95796.53;1044631;28;20021;-51
2021/07/16 00:59:45;;;;;;;11.68;5.18;;;;;;;12.95;100.00;95791.53;1044510;28;20021;-51
2021/07/16 01:00:17;;;;;;;19.08;5.45;;;;;;;12.95;100.00;95790.69;1044609;28;20088;-53
2021/07/16 01:00:47;;;;;;;16.27;5.88;;;;;;;12.96;100.00;95787.13;1044611;28;20021;-50
2021/07/16 01:01:18;;;;;;;10.18;6.05;;;;;;;12.88;100.00;95786.91;1044587;28;20029;-53
2021/07/16 01:01:49;;;;;;;10.75;5.75;;;;;;;12.91;100.00;95797.16;1044427;28;20127;-50
2021/07/16 01:02:20;;;;;;;10.10;5.90;;;;;;;12.88;100.00;95795.63;1044501;28;20021;-50
2021/07/16 01:02:51;;;;;;;12.27;5.38;;;;;;;12.92;100.00;95793.59;1044628;28;20099;-51
2021/07/16 01:03:22;;;;;;;10.35;6.18;;;;;;;12.88;100.00;95787.75;1044651;28;20545;-51
2021/07/16 01:03:53;;;;;;;10.95;5.60;;;;;;;12.86;100.00;95788.81;1043786;28;20029;-51
2021/07/16 01:04:24;;;;;;;11.30;5.22;;;;;;;12.84;100.00;95789.78;1044640;28;20029;-50
2021/07/16 01:04:55;;;;;;;11.55;5.50;;;;;;;12.82;100.00;95786.47;1044513;28;20020;-51
2021/07/16 01:05:27;;;;;;;12.57;5.50;;;;;;;12.82;100.00;95788.25;1044587;28;20032;-50
2021/07/16 01:06:00;;;;;;;12.48;5.50;;;;;;;12.82;100.00;95788.25;1044596;28;20044;-51
2021/07/16 01:06:30;;;;;;;9.43;5.25;;;;;;;12.80;100.00;95788.38;1044583;28;20017;-51
2021/07/16 01:07:03;;;;;;;14.82;5.10;;;;;;;12.82;100.00;95788.25;1044668;28;20045;-47
2021/07/16 01:07:34;;;;;;;16.42;6.45;;;;;;;12.78;100.00;95781.56;1044700;28;20502;-50
2021/07/16 01:08:04;;;;;;;11.73;6.55;;;;;;;12.79;100.00;95788.50;1044468;28;20028;-52
2021/07/16 01:08:35;;;;;;;12.65;5.88;;;;;;;12.79;100.00;95786.69;1044607;28;20393;-50
2021/07/16 01:09:06;;;;;;;13.88;6.00;;;;;;;12.79;100.00;95788.50;1044603;28;20702;-49
2021/07/16 01:09:37;;;;;;;14.93;5.72;;;;;;;12.77;100.00;95780.72;1044667;28;20057;-50
2021/07/16 01:10:09;;;;;;;15.25;5.95;;;;;;;12.79;100.00;95788.50;1044464;28;20071;-50
2021/07/16 01:10:40;;;;;;;10.93;6.03;;;;;;;12.77;100.00;95788.63;1044583;28;20067;-50
2021/07/16 01:11:10;;;;;;;14.18;5.53;;;;;;;12.76;100.00;95788.75;1044680;28;20589;-52
2021/07/16 01:11:41;;;;;;;12.13;6.28;;;;;;;12.75;100.00;95785.28;1044609;28;20033;-50
2021/07/16 01:12:12;;;;;;;12.57;6.15;;;;;;;12.78;100.00;95781.56;1044504;28;20017;-51
2021/07/16 01:12:43;;;;;;;23.02;5.78;;;;;;;12.79;100.00;95778.81;1044594;28;20020;-51
2021/07/16 01:13:14;;;;;;;16.27;5.68;;;;;;;12.78;100.00;95781.56;1044611;28;20044;-51
2021/07/16 01:13:44;;;;;;;10.98;6.03;;;;;;;12.77;100.00;95779.91;1044079;28;20021;-53
2021/07/16 01:14:16;;;;;;;15.57;5.70;;;;;;;12.75;100.00;95777.41;1044454;28;20028;-51
2021/07/16 01:14:48;;;;;;;19.20;7.18;;;;;;;12.74;100.00;95778.34;1044554;28;20025;-50
2021/07/16 01:15:20;;;;;;;12.07;6.10;;;;;;;12.72;100.00;95777.63;1044611;28;20523;-49
2021/07/16 01:15:51;;;;;;;22.17;6.22;;;;;;;12.69;100.00;95780.53;1044478;28;20032;-52
2021/07/16 01:16:22;;;;;;;13.13;5.32;;;;;;;12.66;100.00;95780.78;1044363;28;20079;-51
2021/07/16 01:16:53;;;;;;;11.70;5.30;;;;;;;12.69;100.00;95779.69;1044642;28;20062;-52
2021/07/16 01:17:25;;;;;;;17.20;5.90;;;;;;;12.67;100.00;95776.34;1044598;28;20048;-51
2021/07/16 01:17:56;;;;;;;15.88;6.53;;;;;;;12.66;100.00;95777.31;1044689;28;20021;-51
2021/07/16 01:18:26;;;;;;;12.85;6.43;;;;;;;12.66;100.00;95777.31;1044413;28;20021;-50
2021/07/16 01:18:58;;;;;;;16.30;6.60;;;;;;;12.66;100.00;95777.31;1044613;28;20021;-51
2021/07/16 01:19:49;;;;;;;12.85;6.43;;;;;;;12.64;100.00;95777.44;1044583;28;20049;-51
2021/07/16 01:20:24;;;;;;;15.05;7.40;;;;;;;12.63;100.00;95773.97;1044513;28;20047;-50
2021/07/16 01:20:55;;;;;;;15.90;7.82;;;;;;;12.61;100.00;95786.41;1044560;28;20029;-50
2021/07/16 01:21:27;;;;;;;16.10;7.50;;;;;;;12.59;100.00;95782.22;1044601;28;20027;-51
2021/07/16 01:21:58;;;;;;;10.48;5.85;;;;;;;12.58;100.00;95785.81;1044586;28;20013;-51
2021/07/16 01:22:30;;;;;;;13.27;7.03;;;;;;;12.57;100.00;95782.34;1044368;28;20025;-51
2021/07/16 01:23:12;;;;;;;14.30;6.75;;;;;;;12.55;100.00;95775.56;1044545;28;20021;-51
2021/07/16 01:23:43;;;;;;;15.95;6.22;;;;;;;12.55;100.00;95783.44;1044002;28;20020;-50
2021/07/16 01:24:13;;;;;;;11.60;6.68;;;;;;;12.57;100.00;95781.50;1044536;28;20475;-49
2021/07/16 01:24:45;;;;;;;9.38;6.25;;;;;;;12.57;100.00;95778.88;1044001;28;20108;-50
2021/07/16 01:25:19;;;;;;;13.43;7.20;;;;;;;12.54;100.00;95777.34;1044253;28;20060;-51
2021/07/16 01:25:51;;;;;;;15.88;7.20;;;;;;;12.54;100.00;95779.16;1044234;28;20593;-51
2021/07/16 01:26:22;;;;;;;10.18;5.85;;;;;;;12.54;100.00;95774.72;1044301;28;20024;-52
2021/07/16 01:26:52;;;;;;;12.75;6.93;;;;;;;12.53;100.00;95780.94;1044426;28;20020;-50
2021/07/16 01:27:23;;;;;;;12.63;6.38;;;;;;;12.52;100.00;95774.03;1044536;28;20090;-52
2021/07/16 01:27:56;;;;;;;20.73;6.30;;;;;;;12.52;100.00;95776.66;1044397;28;20020;-50
2021/07/16 01:28:27;;;;;;;12.02;6.35;;;;;;;12.53;100.00;95778.31;1044464;28;20021;-50
2021/07/16 01:28:59;;;;;;;11.27;6.18;;;;;;;12.53;100.00;95774.84;1044395;28;20017;-50
2021/07/16 01:29:30;;;;;;;14.93;8.10;;;;;;;12.51;100.00;95780.22;1044500;28;20016;-51
2021/07/16 01:30:01;;;;;;;13.77;7.55;;;;;;;12.49;100.00;95776.88;1044510;28;20092;-50
2021/07/16 01:30:33;;;;;;;17.25;7.72;;;;;;;12.47;100.00;95772.72;1044535;28;20036;-52
2021/07/16 01:31:03;;;;;;;14.75;7.88;;;;;;;12.49;100.00;95774.25;1044341;28;20017;-53
2021/07/16 01:31:34;;;;;;;16.60;8.18;;;;;;;12.46;100.00;95774.50;1044557;28;20028;-50
2021/07/16 01:32:05;;;;;;;16.27;7.68;;;;;;;12.46;100.00;95771.88;1044515;28;20039;-48
2021/07/16 01:32:37;;;;;;;16.42;6.40;;;;;;;12.45;100.00;95775.47;1044419;28;20009;-52
2021/07/16 01:33:09;;;;;;;14.25;7.55;;;;;;;12.46;100.00;95774.50;1044361;28;20031;-50
2021/07/16 01:33:39;;;;;;;14.50;7.10;;;;;;;12.45;100.00;95773.66;1043917;28;20412;-53
2021/07/16 01:34:10;;;;;;;22.65;8.05;;;;;;;12.44;100.00;95768.53;1044542;28;20009;-51
2021/07/16 01:34:41;;;;;;;14.10;7.07;;;;;;;12.43;100.00;95767.69;1044470;28;20005;-51
2021/07/16 01:35:11;;;;;;;17.50;8.20;;;;;;;12.41;100.00;95767.00;1044359;28;20443;-50
2021/07/16 01:35:42;;;;;;;14.27;8.13;;;;;;;12.43;100.00;95770.34;1044245;28;20009;-52
2021/07/16 01:36:13;;;;;;;11.65;7.13;;;;;;;12.40;100.00;95765.31;1044568;28;20013;-49
2021/07/16 01:36:44;;;;;;;17.90;8.85;;;;;;;12.39;100.00;95770.72;1044461;28;20032;-50
2021/07/16 01:37:15;;;;;;;19.40;8.38;;;;;;;12.37;100.00;95768.22;1044356;28;20017;-50
2021/07/16 01:37:46;;;;;;;17.02;8.70;;;;;;;12.37;100.00;95764.72;1044575;28;20037;-53
2021/07/16 01:38:16;;;;;;;20.00;8.90;;;;;;;12.35;100.00;95769.28;1044443;28;20008;-51
2021/07/16 01:38:47;;;;;;;20.27;9.00;;;;;;;12.36;100.00;95768.31;1044364;28;20135;-49
2021/07/16 01:39:17;;;;;;;15.68;7.78;;;;;;;12.33;100.00;95761.53;1044276;28;20066;-49
2021/07/16 01:39:48;;;;;;;21.45;8.20;;;;;;;12.35;100.00;95766.63;1044508;28;20023;-51
2021/07/16 01:40:20;;;;;;;16.50;8.40;;;;;;;12.36;100.00;95763.06;1044531;28;20463;-51
2021/07/16 01:40:51;;;;;;;19.38;8.95;;;;;;;12.38;100.00;95766.41;1044466;28;20013;-50
2021/07/16 01:41:22;;;;;;;16.95;7.63;;;;;;;12.34;100.00;95760.56;1044414;28;20092;-51
2021/07/16 01:41:53;;;;;;;12.90;7.32;;;;;;;12.34;100.00;95757.09;1044598;28;20020;-51
2021/07/16 01:42:38;;;;;;;13.52;8.00;;;;;;;12.37;100.00;95762.94;1044398;28;20111;-51
2021/07/16 01:43:10;;;;;;;21.88;7.68;;;;;;;12.38;100.00;95764.59;1044477;28;20025;-50
2021/07/16 01:43:41;;;;;;;16.55;8.00;;;;;;;12.36;100.00;95768.31;1043805;28;20390;-51
2021/07/16 01:44:12;;;;;;;16.75;8.48;;;;;;;12.35;100.00;95759.63;1044551;28;20024;-51
2021/07/16 01:44:42;;;;;;;12.45;7.50;;;;;;;12.34;100.00;95765.81;1044481;28;20367;-51
2021/07/16 01:45:16;;;;;;;14.25;7.95;;;;;;;12.32;100.00;95767.72;1044502;28;20027;-53
2021/07/16 01:45:47;;;;;;;24.80;8.95;;;;;;;12.32;100.00;95766.91;1044427;28;20025;-50
2021/07/16 01:46:17;;;;;;;13.85;7.78;;;;;;;12.30;100.00;95767.03;1044149;28;20482;-49
2021/07/16 01:46:49;;;;;;;16.27;7.65;;;;;;;12.33;100.00;95769.41;1044016;28;20017;-51
2021/07/16 01:47:19;;;;;;;14.25;8.20;;;;;;;12.35;100.00;95766.63;1044532;28;20024;-50
2021/07/16 01:47:53;;;;;;;17.33;7.40;;;;;;;12.32;100.00;95765.09;1044373;28;20491;-51
2021/07/16 01:48:24;;;;;;;12.38;7.00;;;;;;;12.35;100.00;95767.50;1044527;28;20024;-51
2021/07/16 01:48:55;;;;;;;14.68;6.82;;;;;;;12.34;100.00;95771.06;1044347;28;20036;-52
2021/07/16 01:49:27;;;;;;;12.95;8.45;;;;;;;12.32;100.00;95769.53;1044395;28;20360;-52
2021/07/16 01:49:57;;;;;;;13.75;7.65;;;;;;;12.32;100.00;95772.16;1044368;28;20088;-49
2021/07/16 01:50:28;;;;;;;16.30;7.82;;;;;;;12.35;100.00;95772.75;1044461;28;20475;-53
2021/07/16 01:50:59;;;;;;;15.50;7.90;;;;;;;12.31;100.00;95766.03;1044399;28;20047;-50
2021/07/16 01:51:30;;;;;;;17.15;8.20;;;;;;;12.29;100.00;95769.78;1044486;28;20047;-50
2021/07/16 01:52:01;;;;;;;25.63;9.73;;;;;;;12.28;100.00;95766.31;1044396;28;20366;-50
2021/07/16 01:52:33;;;;;;;22.50;9.18;;;;;;;12.25;100.00;95767.38;1044492;28;20394;-51
2021/07/16 01:53:04;;;;;;;19.45;8.40;;;;;;;12.28;100.00;95770.75;1044362;28;20376;-51
2021/07/16 01:53:34;;;;;;;23.15;9.00;;;;;;;12.28;100.00;95776.00;1043919;28;20028;-53
2021/07/16 01:54:05;;;;;;;17.98;8.48;;;;;;;12.28;100.00;95771.56;1044281;28;20078;-49
2021/07/16 01:54:36;;;;;;;15.38;8.70;;;;;;;12.32;100.00;95774.78;1044467;28;20028;-51
2021/07/16 01:55:09;;;;;;;17.98;10.32;;;;;;;12.32;100.00;95766.91;1044391;28;20430;-52
2021/07/16 01:55:40;;;;;;;21.02;10.07;;;;;;;12.34;100.00;95765.81;1044305;28;20059;-51
2021/07/16 01:56:11;;;;;;;14.40;8.73;;;;;;;12.35;100.00;95770.13;1044380;28;20514;-51
2021/07/16 01:56:41;;;;;;;22.90;9.70;;;;;;;12.36;100.00;95769.16;1044429;28;20024;-51
2021/07/16 01:57:12;;;;;;;18.75;9.00;;;;;;;12.35;100.00;95766.63;1044405;28;20021;-51
2021/07/16 01:57:46;;;;;;;28.10;9.82;;;;;;;12.35;100.00;95767.50;1044362;28;20020;-52
2021/07/16 01:58:17;;;;;;;19.23;8.82;;;;;;;12.35;100.00;95770.13;1044389;28;20059;-51
2021/07/16 01:58:48;;;;;;;18.75;8.95;;;;;;;12.36;100.00;95768.31;1044279;28;20023;-51
2021/07/16 01:59:18;;;;;;;14.95;8.13;;;;;;;12.35;100.00;95770.13;1044285;28;20023;-50
2021/07/16 01:59:49;;;;;;;20.08;9.40;;;;;;;12.34;100.00;95765.81;1044415;28;20107;-51
2021/07/16 02:00:23;;;;;;;20.63;8.23;;;;;;;12.32;100.00;95769.53;1044316;28;20398;-50
2021/07/16 02:00:54;;;;;;;13.65;9.02;;;;;;;12.33;100.00;95773.81;1044404;28;20020;-50
2021/07/16 02:01:24;;;;;;;15.30;8.75;;;;;;;12.34;100.00;95770.25;1044452;28;20445;-51
2021/07/16 02:01:55;;;;;;;19.10;9.15;;;;;;;12.32;100.00;95773.00;1044266;28;20420;-52
2021/07/16 02:02:26;;;;;;;17.20;8.80;;;;;;;12.31;100.00;95773.94;1044311;28;20013;-50
2021/07/16 02:02:58;;;;;;;18.20;10.02;;;;;;;12.28;100.00;95774.19;1044312;28;20081;-54
2021/07/16 02:03:29;;;;;;;14.43;7.68;;;;;;;12.27;100.00;95776.94;1044047;28;20440;-50
2021/07/16 02:04:00;;;;;;;24.27;11.40;;;;;;;12.23;100.00;95776.34;1044095;28;20084;-51
2021/07/16 02:04:31;;;;;;;19.48;9.68;;;;;;;12.23;100.00;95779.81;1044374;28;20551;-53
2021/07/16 02:05:02;;;;;;;27.02;11.23;;;;;;;12.21;100.00;95773.00;1044280;28;20462;-50
2021/07/16 02:05:33;;;;;;;12.48;7.40;;;;;;;12.25;100.00;95769.19;1044632;28;20033;-52
2021/07/16 02:06:04;;;;;;;21.23;10.73;;;;;;;12.25;100.00;95780.50;1044355;28;20110;-50
2021/07/16 02:06:35;;;;;;;19.92;10.20;;;;;;;12.20;100.00;95772.19;1044358;28;20025;-50
2021/07/16 02:07:06;;;;;;;19.90;11.55;;;;;;;12.20;100.00;95779.22;1044217;28;20071;-51
2021/07/16 02:07:36;;;;;;;23.48;11.38;;;;;;;12.19;100.00;95781.00;1044476;28;20017;-51
2021/07/16 02:08:13;;;;;;;21.08;11.07;;;;;;;12.18;100.00;95778.50;1044369;28;20021;-53
2021/07/16 02:08:45;;;;;;;19.50;10.75;;;;;;;12.19;100.00;95774.94;1044429;28;20013;-51
2021/07/16 02:09:15;;;;;;;23.10;11.43;;;;;;;12.18;100.00;95779.34;1044270;28;20031;-51
2021/07/16 02:09:46;;;;;;;19.95;10.55;;;;;;;12.16;100.00;95781.28;1044369;28;20017;-51
2021/07/16 02:10:26;;;;;;;26.92;12.85;;;;;;;12.14;100.00;95779.69;1044313;28;20025;-53
2021/07/16 02:10:57;;;;;;;21.75;11.65;;;;;;;12.12;100.00;95774.56;1044289;28;20021;-50
2021/07/16 02:11:27;;;;;;;26.08;11.00;;;;;;;12.13;100.00;95778.06;1044298;28;20020;-52
2021/07/16 02:11:59;;;;;;;29.42;13.55;;;;;;;12.11;100.00;95775.53;1044350;28;20017;-50
2021/07/16 02:12:29;;;;;;;23.08;12.50;;;;;;;12.11;100.00;95782.59;1044260;28;20013;-54
2021/07/16 02:13:00;;;;;;;19.33;9.23;;;;;;;12.13;100.00;95776.25;1044348;28;20013;-51
2021/07/16 02:13:31;;;;;;;21.98;9.82;;;;;;;12.12;100.00;95773.75;1043824;28;20546;-50
2021/07/16 02:14:02;;;;;;;20.98;10.20;;;;;;;12.11;100.00;95772.09;1044240;28;20032;-51
2021/07/16 02:14:33;;;;;;;17.33;8.45;;;;;;;12.11;100.00;95783.41;1044335;28;20537;-51
2021/07/16 02:15:09;;;;;;;10.63;8.25;;;;;;;12.10;100.00;95779.09;1044332;28;20021;-53
2021/07/16 02:15:42;;;;;;;16.35;8.20;;;;;;;12.13;100.00;95775.44;1044211;28;20032;-51
2021/07/16 02:16:12;;;;;;;16.45;9.65;;;;;;;12.11;100.00;95782.59;1044382;28;20021;-50
2021/07/16 02:16:43;;;;;;;26.33;11.35;;;;;;;12.10;100.00;95784.34;1044274;28;20037;-50
2021/07/16 02:17:14;;;;;;;26.90;12.52;;;;;;;12.08;100.00;95781.03;1044294;28;20020;-52
2021/07/16 02:17:45;;;;;;;18.13;10.95;;;;;;;12.09;100.00;95782.72;1044356;28;20013;-50
2021/07/16 02:18:16;;;;;;;21.50;10.05;;;;;;;12.12;100.00;95779.81;1044331;28;20017;-51
2021/07/16 02:18:50;;;;;;;19.42;10.80;;;;;;;12.16;100.00;95785.66;1044171;28;20033;-48
2021/07/16 02:19:21;;;;;;;22.08;10.48;;;;;;;12.17;100.00;95777.66;1044174;28;20017;-51
2021/07/16 02:19:52;;;;;;;23.50;10.35;;;;;;;12.18;100.00;95778.50;1044362;28;20063;-51
2021/07/16 02:20:26;;;;;;;29.00;12.80;;;;;;;12.16;100.00;95778.66;1044390;28;20016;-51
2021/07/16 02:20:56;;;;;;;18.75;9.77;;;;;;;12.15;100.00;95782.22;1044204;28;20009;-51
2021/07/16 02:21:27;;;;;;;35.42;12.60;;;;;;;12.12;100.00;95790.31;1044394;28;20036;-51
2021/07/16 02:21:58;;;;;;;21.33;11.55;;;;;;;12.10;100.00;95778.28;1044266;28;20009;-53
2021/07/16 02:22:28;;;;;;;32.45;13.00;;;;;;;12.12;100.00;95784.25;1044233;28;20045;-51
2021/07/16 02:23:02;;;;;;;26.05;12.32;;;;;;;12.10;100.00;95783.53;1044189;28;20052;-50
2021/07/16 02:23:33;;;;;;;18.35;9.00;;;;;;;12.12;100.00;95785.06;1043831;28;20047;-50
2021/07/16 02:24:04;;;;;;;15.73;9.35;;;;;;;12.13;100.00;95781.50;1044142;28;20025;-52